Time;durP1;ratioP1;P1;durP2;ratioP2;P2;SDS_P1;SDS_P2;PMS_P1;PMS_P2;Temp;Humidity;BMP_temperature;BMP_pressure;BME280_temperature;BME280_humidity;BME280_pressure;Samples;Min_cycle;Max_cycle;Signal;HPM_P1;HPM_P2
2021/05/14 00:01:21;;;;;;;3.97;1.40;;;;;;;;;;3616682;39;20037;-61
2021/05/14 00:03:48;;;;;;;2.47;1.25;;;;;;;;;;3617193;39;20113;-62
2021/05/14 00:06:14;;;;;;;2.42;1.10;;;;;;;;;;3615983;39;20605;-62
2021/05/14 00:08:39;;;;;;;3.17;1.80;;;;;;;;;;3616627;39;20031;-62
2021/05/14 00:11:04;;;;;;;3.42;1.50;;;;;;;;;;3616450;39;20290;-62
2021/05/14 00:13:31;;;;;;;2.78;1.40;;;;;;;;;;3615849;39;20027;-62
2021/05/14 00:15:56;;;;;;;3.38;1.88;;;;;;;;;;3616615;39;20139;-62
2021/05/14 00:18:23;;;;;;;3.35;1.40;;;;;;;;;;3616449;39;20370;-62
2021/05/14 00:20:48;;;;;;;2.97;1.38;;;;;;;;;;3616939;39;20418;-62
2021/05/14 00:23:14;;;;;;;2.00;1.10;;;;;;;;;;3615474;39;20039;-62
2021/05/14 00:25:40;;;;;;;2.38;1.20;;;;;;;;;;3616732;39;20251;-62
2021/05/14 00:28:05;;;;;;;4.38;1.73;;;;;;;;;;3616664;39;20035;-62
2021/05/14 00:30:31;;;;;;;2.72;1.27;;;;;;;;;;3615068;39;20059;-62
2021/05/14 00:32:56;;;;;;;3.25;1.33;;;;;;;;;;3617076;39;20047;-62
2021/05/14 00:35:22;;;;;;;5.72;1.40;;;;;;;;;;3616882;39;20030;-62
2021/05/14 00:37:47;;;;;;;3.15;1.38;;;;;;;;;;3615908;39;20051;-62
2021/05/14 00:40:13;;;;;;;4.93;1.50;;;;;;;;;;3616082;39;20116;-62
2021/05/14 00:42:38;;;;;;;3.58;1.38;;;;;;;;;;3616163;39;20119;-62
2021/05/14 00:45:06;;;;;;;2.85;1.30;;;;;;;;;;3607147;39;20031;-62
2021/05/14 00:47:31;;;;;;;2.45;1.20;;;;;;;;;;3615250;39;20027;-62
2021/05/14 00:49:56;;;;;;;3.10;1.52;;;;;;;;;;3615988;39;20264;-62
2021/05/14 00:52:22;;;;;;;4.82;1.70;;;;;;;;;;3616417;39;20042;-62
2021/05/14 00:54:49;;;;;;;2.78;1.58;;;;;;;;;;3616209;39;20051;-62
2021/05/14 00:57:16;;;;;;;3.22;1.15;;;;;;;;;;3615533;39;20385;-62
2021/05/14 00:59:43;;;;;;;3.25;1.73;;;;;;;;;;3616447;39;20043;-62
2021/05/14 01:02:09;;;;;;;4.90;2.17;;;;;;;;;;3616292;39;20037;-62
2021/05/14 01:04:35;;;;;;;3.40;1.48;;;;;;;;;;3616485;39;20266;-62
2021/05/14 01:07:01;;;;;;;4.93;1.30;;;;;;;;;;3605707;39;20051;-62
2021/05/14 01:09:26;;;;;;;3.22;1.20;;;;;;;;;;3616404;39;20027;-62
2021/05/14 01:11:52;;;;;;;4.38;1.70;;;;;;;;;;3616465;39;20369;-62
2021/05/14 01:14:17;;;;;;;3.20;1.50;;;;;;;;;;3598753;39;20035;-62
2021/05/14 01:16:43;;;;;;;7.18;1.75;;;;;;;;;;3615484;39;20452;-62
2021/05/14 01:19:08;;;;;;;3.38;1.15;;;;;;;;;;3616354;39;20034;-62
2021/05/14 01:21:35;;;;;;;3.30;1.40;;;;;;;;;;3616471;39;20031;-62
2021/05/14 01:24:00;;;;;;;2.83;1.50;;;;;;;;;;3616084;39;20042;-62
2021/05/14 01:26:27;;;;;;;2.72;1.20;;;;;;;;;;3615850;39;20027;-62
2021/05/14 01:28:53;;;;;;;2.70;1.15;;;;;;;;;;3616348;39;20354;-63
2021/05/14 01:31:19;;;;;;;3.38;1.42;;;;;;;;;;3616268;39;20031;-62
2021/05/14 01:33:46;;;;;;;3.15;1.38;;;;;;;;;;3615657;39;20035;-62
2021/05/14 01:36:11;;;;;;;3.83;1.80;;;;;;;;;;3616345;39;20409;-62
2021/05/14 01:38:37;;;;;;;3.20;1.52;;;;;;;;;;3615789;39;20031;-62
2021/05/14 01:41:03;;;;;;;3.20;1.40;;;;;;;;;;3616186;39;20051;-62
2021/05/14 01:43:28;;;;;;;3.83;1.55;;;;;;;;;;3614882;39;20067;-62
2021/05/14 01:45:54;;;;;;;3.63;1.65;;;;;;;;;;3615626;39;20132;-63
2021/05/14 01:48:19;;;;;;;5.07;2.85;;;;;;;;;;3616725;39;20086;-62
2021/05/14 01:50:45;;;;;;;5.28;2.55;;;;;;;;;;3617277;39;20145;-62
2021/05/14 01:53:10;;;;;;;3.63;1.92;;;;;;;;;;3617751;39;20050;-63
2021/05/14 01:55:37;;;;;;;2.63;1.45;;;;;;;;;;3617850;39;20600;-62
2021/05/14 01:58:04;;;;;;;6.20;1.63;;;;;;;;;;3617522;39;20092;-62
2021/05/14 02:00:30;;;;;;;4.15;1.27;;;;;;;;;;3616921;39;20055;-62
2021/05/14 02:02:55;;;;;;;2.10;1.20;;;;;;;;;;3617947;39;20057;-62
2021/05/14 02:05:20;;;;;;;4.05;1.50;;;;;;;;;;3608442;39;20047;-62
2021/05/14 02:07:46;;;;;;;4.15;1.83;;;;;;;;;;3617210;39;20489;-63
2021/05/14 02:10:12;;;;;;;3.60;1.40;;;;;;;;;;3617401;39;20031;-62
2021/05/14 02:12:37;;;;;;;3.92;1.40;;;;;;;;;;3616348;39;20035;-63
2021/05/14 02:15:05;;;;;;;2.92;1.42;;;;;;;;;;3617960;39;20023;-63
2021/05/14 02:17:30;;;;;;;3.08;1.30;;;;;;;;;;3616492;39;20049;-62
2021/05/14 02:19:56;;;;;;;4.10;1.65;;;;;;;;;;3607485;39;20039;-63
2021/05/14 02:22:21;;;;;;;4.55;1.52;;;;;;;;;;3617190;39;20043;-63
2021/05/14 02:24:47;;;;;;;3.95;1.48;;;;;;;;;;3617825;39;20290;-63
2021/05/14 02:27:12;;;;;;;3.03;1.35;;;;;;;;;;3617315;39;20031;-62
2021/05/14 02:29:38;;;;;;;3.30;1.50;;;;;;;;;;3616497;39;20469;-62
2021/05/14 02:32:05;;;;;;;2.38;1.30;;;;;;;;;;3617577;39;20039;-63
2021/05/14 02:34:31;;;;;;;3.80;1.38;;;;;;;;;;3613810;39;20405;-62
2021/05/14 02:36:56;;;;;;;7.70;1.75;;;;;;;;;;3607861;39;20031;-62
2021/05/14 02:39:22;;;;;;;2.05;1.05;;;;;;;;;;3617804;39;20039;-62
2021/05/14 02:41:47;;;;;;;5.75;1.60;;;;;;;;;;3617647;39;20936;-63
2021/05/14 02:44:13;;;;;;;2.58;1.58;;;;;;;;;;3616616;39;20039;-63
2021/05/14 02:46:38;;;;;;;4.78;1.92;;;;;;;;;;3617352;39;20031;-63
2021/05/14 02:49:05;;;;;;;3.13;1.58;;;;;;;;;;3617694;39;20031;-62
2021/05/14 02:51:32;;;;;;;3.50;1.80;;;;;;;;;;3615851;39;20262;-63
2021/05/14 02:53:57;;;;;;;2.13;1.13;;;;;;;;;;3617792;39;20050;-63
2021/05/14 02:56:23;;;;;;;3.05;1.73;;;;;;;;;;3617576;39;20047;-63
2021/05/14 02:58:48;;;;;;;3.85;1.55;;;;;;;;;;3616901;39;20051;-63
2021/05/14 03:01:13;;;;;;;3.22;1.90;;;;;;;;;;3617542;39;20035;-63
2021/05/14 03:03:39;;;;;;;3.80;2.05;;;;;;;;;;3617337;39;20373;-63
2021/05/14 03:06:04;;;;;;;4.57;2.05;;;;;;;;;;3617585;39;20039;-63
2021/05/14 03:08:30;;;;;;;4.93;2.17;;;;;;;;;;3615759;39;20027;-62
2021/05/14 03:10:56;;;;;;;3.95;2.00;;;;;;;;;;3607840;39;20039;-63
2021/05/14 03:13:21;;;;;;;4.30;1.80;;;;;;;;;;3607843;39;20035;-63
2021/05/14 03:15:47;;;;;;;3.08;1.48;;;;;;;;;;3617184;39;20031;-63
2021/05/14 03:18:12;;;;;;;3.92;1.65;;;;;;;;;;3616367;39;20316;-62
2021/05/14 03:20:38;;;;;;;3.10;1.52;;;;;;;;;;3617571;39;20032;-63
2021/05/14 03:23:03;;;;;;;3.40;2.03;;;;;;;;;;3617661;39;20540;-63
2021/05/14 03:25:28;;;;;;;3.20;2.00;;;;;;;;;;3617312;39;20050;-63
2021/05/14 03:27:54;;;;;;;4.18;1.92;;;;;;;;;;3616179;39;20434;-63
2021/05/14 03:30:20;;;;;;;3.17;1.63;;;;;;;;;;3617248;39;20350;-63
2021/05/14 03:32:45;;;;;;;3.65;1.70;;;;;;;;;;3607983;39;20043;-63
2021/05/14 03:35:12;;;;;;;4.78;1.90;;;;;;;;;;3616489;39;20051;-63
2021/05/14 03:37:37;;;;;;;4.10;1.90;;;;;;;;;;3617182;39;20059;-63
2021/05/14 03:40:17;;;;;;;5.07;1.90;;;;;;;;;;3616920;39;20035;-63
2021/05/14 03:42:43;;;;;;;2.90;1.35;;;;;;;;;;3616304;39;20028;-63
2021/05/14 03:45:09;;;;;;;3.00;1.67;;;;;;;;;;3617181;39;20487;-63
2021/05/14 03:47:35;;;;;;;3.97;1.80;;;;;;;;;;3617168;39;20381;-63
2021/05/14 03:50:01;;;;;;;4.60;1.95;;;;;;;;;;3617149;39;20112;-63
2021/05/14 03:52:27;;;;;;;3.00;1.55;;;;;;;;;;3616763;39;20066;-63
2021/05/14 03:54:52;;;;;;;6.35;2.53;;;;;;;;;;3617397;39;20131;-63
2021/05/14 03:57:18;;;;;;;5.88;2.40;;;;;;;;;;3617129;39;20051;-63
2021/05/14 03:59:43;;;;;;;3.17;1.75;;;;;;;;;;3616134;39;20031;-63
2021/05/14 04:02:10;;;;;;;4.88;1.88;;;;;;;;;;3617292;39;20046;-63
2021/05/14 04:04:35;;;;;;;4.47;1.88;;;;;;;;;;3617089;39;20262;-63
2021/05/14 04:07:03;;;;;;;4.70;2.30;;;;;;;;;;3617181;39;20035;-63
2021/05/14 04:09:33;;;;;;;4.97;1.88;;;;;;;;;;3616021;39;20146;-63
2021/05/14 04:14:31;;;;;;;3.67;2.00;;;;;;;;;;3615975;39;20019;-63
2021/05/14 04:16:57;;;;;;;3.45;1.80;;;;;;;;;;3616804;39;20619;-63
2021/05/14 04:19:24;;;;;;;4.18;1.92;;;;;;;;;;3616688;39;20035;-63
2021/05/14 04:21:52;;;;;;;6.32;2.40;;;;;;;;;;3616947;39;20047;-63
2021/05/14 04:24:18;;;;;;;3.75;2.13;;;;;;;;;;3616652;39;20160;-63
2021/05/14 04:26:43;;;;;;;3.55;1.73;;;;;;;;;;3616386;39;20721;-63
2021/05/14 04:29:09;;;;;;;4.18;1.70;;;;;;;;;;3617214;39;20040;-63
2021/05/14 04:31:34;;;;;;;3.20;1.88;;;;;;;;;;3616747;39;20030;-63
2021/05/14 04:33:59;;;;;;;4.75;2.40;;;;;;;;;;3615444;39;20027;-63
2021/05/14 04:36:25;;;;;;;3.85;2.28;;;;;;;;;;3616748;39;20046;-63
2021/05/14 04:38:50;;;;;;;4.15;2.00;;;;;;;;;;3616846;39;20301;-63
2021/05/14 04:41:16;;;;;;;6.35;2.05;;;;;;;;;;3616724;39;20043;-63
2021/05/14 04:43:41;;;;;;;7.20;2.20;;;;;;;;;;3615827;39;20378;-63
2021/05/14 04:46:06;;;;;;;3.40;1.77;;;;;;;;;;3616567;39;20078;-63
2021/05/14 04:48:32;;;;;;;4.50;2.00;;;;;;;;;;3616755;39;20032;-63
2021/05/14 04:50:57;;;;;;;6.03;2.30;;;;;;;;;;3616830;39;20242;-63
2021/05/14 04:53:29;;;;;;;3.83;2.30;;;;;;;;;;3615955;39;20043;-63
2021/05/14 04:55:55;;;;;;;4.15;2.20;;;;;;;;;;3616314;39;20035;-63
2021/05/14 04:58:20;;;;;;;6.68;2.28;;;;;;;;;;3617362;39;20061;-63
2021/05/14 05:00:46;;;;;;;3.58;1.88;;;;;;;;;;3615664;39;20083;-63
2021/05/14 05:03:11;;;;;;;4.35;2.13;;;;;;;;;;3605879;39;20456;-63
2021/05/14 05:05:37;;;;;;;9.82;2.03;;;;;;;;;;3616542;39;20063;-63
2021/05/14 05:08:03;;;;;;;3.58;1.70;;;;;;;;;;3615138;39;20469;-63
2021/05/14 05:10:28;;;;;;;3.38;2.10;;;;;;;;;;3616342;39;20112;-63
2021/05/14 05:12:54;;;;;;;4.25;1.95;;;;;;;;;;3616455;39;20363;-63
2021/05/14 05:15:19;;;;;;;3.03;1.70;;;;;;;;;;3616085;39;20566;-64
2021/05/14 05:17:45;;;;;;;4.63;2.47;;;;;;;;;;3616167;39;20051;-64
2021/05/14 05:20:11;;;;;;;5.50;2.53;;;;;;;;;;3616501;39;20051;-64
2021/05/14 05:22:36;;;;;;;3.35;1.70;;;;;;;;;;3616873;39;20059;-64
2021/05/14 05:25:03;;;;;;;9.23;2.10;;;;;;;;;;3617863;39;20051;-63
2021/05/14 05:27:29;;;;;;;3.70;1.70;;;;;;;;;;3617985;39;20390;-64
2021/05/14 05:29:54;;;;;;;12.23;2.15;;;;;;;;;;3618303;39;20124;-64
2021/05/14 05:32:19;;;;;;;2.42;1.45;;;;;;;;;;3618040;39;20112;-64
2021/05/14 05:34:45;;;;;;;3.00;1.70;;;;;;;;;;3616890;39;20047;-64
2021/05/14 05:37:10;;;;;;;2.67;1.55;;;;;;;;;;3617994;39;20673;-63
2021/05/14 05:39:36;;;;;;;3.15;1.80;;;;;;;;;;3617173;39;20046;-63
2021/05/14 05:42:01;;;;;;;4.80;1.75;;;;;;;;;;3617041;39;20046;-63
2021/05/14 05:44:26;;;;;;;4.35;1.55;;;;;;;;;;3617648;39;20088;-63
2021/05/14 05:46:53;;;;;;;3.97;1.65;;;;;;;;;;3617542;39;20031;-63
2021/05/14 05:49:18;;;;;;;3.28;1.50;;;;;;;;;;3616501;39;20038;-63
2021/05/14 05:51:44;;;;;;;3.38;1.50;;;;;;;;;;3616414;39;20278;-63
2021/05/14 05:54:09;;;;;;;3.47;1.63;;;;;;;;;;3617468;39;20047;-63
2021/05/14 05:56:35;;;;;;;3.85;2.17;;;;;;;;;;3613233;39;20035;-62
2021/05/14 05:59:00;;;;;;;3.47;2.00;;;;;;;;;;3617702;39;20027;-62
2021/05/14 06:01:26;;;;;;;3.97;2.00;;;;;;;;;;3617571;39;20511;-62
2021/05/14 06:03:51;;;;;;;3.85;1.90;;;;;;;;;;3617630;39;20027;-62
2021/05/14 06:06:17;;;;;;;4.82;2.38;;;;;;;;;;3617310;39;20045;-64
2021/05/14 06:08:42;;;;;;;8.07;2.08;;;;;;;;;;3614957;39;20071;-63
2021/05/14 06:11:08;;;;;;;3.42;1.98;;;;;;;;;;3617167;39;20049;-62
2021/05/14 06:13:34;;;;;;;4.18;2.15;;;;;;;;;;3617215;39;20769;-62
2021/05/14 06:16:01;;;;;;;3.72;2.00;;;;;;;;;;3616525;39;20031;-62
2021/05/14 06:18:30;;;;;;;4.72;2.08;;;;;;;;;;3615717;39;20034;-63
2021/05/14 06:20:56;;;;;;;3.42;1.95;;;;;;;;;;3616640;39;20027;-62
2021/05/14 06:23:21;;;;;;;4.28;2.00;;;;;;;;;;3617308;39;20127;-62
2021/05/14 06:25:46;;;;;;;2.97;1.67;;;;;;;;;;3616626;39;20039;-62
2021/05/14 06:28:21;;;;;;;4.35;1.92;;;;;;;;;;3616876;39;20259;-63
2021/05/14 06:30:47;;;;;;;3.95;1.98;;;;;;;;;;3616277;39;20043;-62
2021/05/14 06:33:12;;;;;;;4.60;2.28;;;;;;;;;;3617116;39;20035;-62
2021/05/14 06:35:39;;;;;;;4.70;1.90;;;;;;;;;;3615915;39;20278;-62
2021/05/14 06:38:05;;;;;;;4.65;1.70;;;;;;;;;;3617152;39;20030;-62
2021/05/14 06:40:30;;;;;;;4.13;1.83;;;;;;;;;;3616832;39;20231;-62
2021/05/14 06:42:56;;;;;;;4.93;1.65;;;;;;;;;;3617225;39;20039;-63
2021/05/14 06:45:21;;;;;;;4.13;1.98;;;;;;;;;;3615727;39;20083;-62
2021/05/14 06:47:47;;;;;;;4.20;1.55;;;;;;;;;;3616359;39;20071;-62
2021/05/14 06:50:12;;;;;;;4.20;1.60;;;;;;;;;;3617064;39;20119;-62
2021/05/14 06:52:37;;;;;;;4.97;2.10;;;;;;;;;;3616698;39;20027;-62
2021/05/14 06:55:08;;;;;;;3.50;1.73;;;;;;;;;;3616036;39;20050;-62
2021/05/14 06:57:34;;;;;;;2.75;1.35;;;;;;;;;;3615953;39;20153;-62
2021/05/14 07:00:00;;;;;;;3.05;1.58;;;;;;;;;;3617335;39;20056;-62
2021/05/14 07:02:25;;;;;;;3.33;1.58;;;;;;;;;;3617132;39;20051;-62
2021/05/14 07:04:51;;;;;;;6.90;1.88;;;;;;;;;;3615198;39;20063;-62
2021/05/14 07:07:17;;;;;;;5.93;1.65;;;;;;;;;;3615015;39;20039;-61
2021/05/14 07:09:43;;;;;;;4.18;1.80;;;;;;;;;;3616753;39;20039;-62
2021/05/14 07:12:09;;;;;;;3.25;1.50;;;;;;;;;;3616494;39;20081;-61
2021/05/14 07:14:35;;;;;;;4.55;2.03;;;;;;;;;;3615984;39;20414;-60
2021/05/14 07:17:01;;;;;;;2.85;1.50;;;;;;;;;;3615998;39;20051;-61
2021/05/14 07:19:27;;;;;;;3.75;1.80;;;;;;;;;;3616041;39;20043;-61
2021/05/14 07:21:53;;;;;;;3.22;1.80;;;;;;;;;;3616542;39;20345;-60
2021/05/14 07:24:18;;;;;;;3.90;2.08;;;;;;;;;;3615934;39;20024;-61
2021/05/14 07:26:43;;;;;;;4.03;1.60;;;;;;;;;;3616643;39;20278;-61
2021/05/14 07:29:09;;;;;;;3.35;1.75;;;;;;;;;;3617117;39;20147;-61
2021/05/14 07:31:34;;;;;;;4.03;1.88;;;;;;;;;;3613940;39;20559;-60
2021/05/14 07:34:00;;;;;;;6.25;2.10;;;;;;;;;;3616588;39;20043;-61
2021/05/14 07:36:26;;;;;;;4.57;1.80;;;;;;;;;;3617025;39;20035;-61
2021/05/14 07:38:53;;;;;;;7.32;1.90;;;;;;;;;;3616418;39;20368;-61
2021/05/14 07:41:18;;;;;;;4.95;1.90;;;;;;;;;;3615150;39;20035;-63
2021/05/14 07:43:43;;;;;;;2.90;1.60;;;;;;;;;;3616661;39;20039;-60
2021/05/14 07:46:09;;;;;;;3.72;1.77;;;;;;;;;;3607309;39;20027;-60
2021/05/14 07:48:34;;;;;;;4.13;1.92;;;;;;;;;;3616774;39;20357;-60
2021/05/14 07:51:00;;;;;;;4.22;2.10;;;;;;;;;;3616476;39;20255;-60
2021/05/14 07:53:25;;;;;;;5.00;2.08;;;;;;;;;;3617105;39;20474;-60
2021/05/14 07:55:51;;;;;;;3.65;2.20;;;;;;;;;;3616465;39;20051;-62
2021/05/14 07:58:16;;;;;;;3.80;1.92;;;;;;;;;;3616903;39;20176;-63
2021/05/14 08:00:43;;;;;;;6.18;1.73;;;;;;;;;;3616250;39;20054;-61
2021/05/14 08:03:08;;;;;;;5.65;1.88;;;;;;;;;;3616090;39;20512;-62
2021/05/14 08:05:34;;;;;;;5.72;1.38;;;;;;;;;;3616781;39;20115;-62
2021/05/14 08:08:09;;;;;;;4.03;1.70;;;;;;;;;;3616328;39;20024;-62
2021/05/14 08:10:35;;;;;;;4.38;1.88;;;;;;;;;;3607117;39;20038;-62
2021/05/14 08:13:01;;;;;;;5.10;1.77;;;;;;;;;;3606326;39;20451;-62
2021/05/14 08:15:27;;;;;;;3.83;1.90;;;;;;;;;;3616237;39;20039;-60
2021/05/14 08:17:52;;;;;;;4.97;1.73;;;;;;;;;;3613114;39;20054;-62
2021/05/14 08:20:21;;;;;;;3.03;1.40;;;;;;;;;;3617135;39;20044;-63
2021/05/14 08:22:47;;;;;;;3.20;1.70;;;;;;;;;;3606373;39;20135;-62
2021/05/14 08:25:13;;;;;;;9.13;1.80;;;;;;;;;;3616927;39;20076;-62
2021/05/14 08:27:39;;;;;;;3.30;1.90;;;;;;;;;;3617179;39;20034;-62
2021/05/14 08:30:06;;;;;;;3.38;1.73;;;;;;;;;;3618915;39;20439;-62
2021/05/14 08:32:32;;;;;;;4.72;1.67;;;;;;;;;;3617601;39;20023;-62
2021/05/14 08:34:58;;;;;;;4.57;1.67;;;;;;;;;;3616049;39;20039;-62
2021/05/14 08:37:23;;;;;;;3.22;1.67;;;;;;;;;;3614785;39;20037;-62
2021/05/14 08:39:49;;;;;;;3.60;1.50;;;;;;;;;;3606659;39;20527;-61
2021/05/14 08:42:14;;;;;;;3.85;1.55;;;;;;;;;;3616778;39;20072;-61
2021/05/14 08:44:40;;;;;;;3.28;1.65;;;;;;;;;;3616594;39;20124;-62
2021/05/14 08:47:06;;;;;;;3.10;1.48;;;;;;;;;;3616556;39;20024;-62
2021/05/14 08:49:34;;;;;;;4.88;1.88;;;;;;;;;;3616717;39;20031;-61
2021/05/14 08:52:04;;;;;;;3.55;1.77;;;;;;;;;;3615967;39;20047;-62
2021/05/14 08:54:30;;;;;;;3.67;1.27;;;;;;;;;;3615635;39;20475;-62
2021/05/14 08:56:56;;;;;;;2.22;1.30;;;;;;;;;;3615297;39;20035;-62
2021/05/14 08:59:21;;;;;;;4.18;1.70;;;;;;;;;;3616754;39;20488;-62
2021/05/14 09:01:49;;;;;;;2.47;1.20;;;;;;;;;;3617424;39;20106;-62
2021/05/14 09:04:16;;;;;;;3.13;1.58;;;;;;;;;;3616854;39;20034;-60
2021/05/14 09:06:43;;;;;;;2.63;1.20;;;;;;;;;;3617953;39;20026;-60
2021/05/14 09:09:15;;;;;;;4.25;1.52;;;;;;;;;;3606612;39;20255;-60
2021/05/14 09:11:41;;;;;;;3.33;1.67;;;;;;;;;;3616113;39;20031;-60
2021/05/14 09:14:29;;;;;;;3.40;1.35;;;;;;;;;;3615801;39;20039;-59
2021/05/14 09:16:55;;;;;;;3.85;1.60;;;;;;;;;;3614976;39;20027;-60
2021/05/14 09:19:31;;;;;;;2.92;1.33;;;;;;;;;;3616040;39;20031;-60
2021/05/14 09:22:14;;;;;;;2.38;1.10;;;;;;;;;;3615871;39;20052;-60
2021/05/14 09:24:42;;;;;;;4.95;1.55;;;;;;;;;;3615535;39;20027;-60
2021/05/14 09:27:18;;;;;;;3.10;1.52;;;;;;;;;;3614156;39;20043;-60
2021/05/14 09:29:45;;;;;;;7.00;1.40;;;;;;;;;;3616057;39;20259;-60
2021/05/14 09:32:21;;;;;;;2.80;1.10;;;;;;;;;;3615929;39;20043;-60
2021/05/14 09:34:51;;;;;;;4.10;1.35;;;;;;;;;;3615956;39;20063;-60
2021/05/14 09:37:18;;;;;;;2.17;0.90;;;;;;;;;;3615979;39;20074;-60
2021/05/14 09:39:44;;;;;;;2.88;1.13;;;;;;;;;;3616522;39;20043;-60
2021/05/14 09:42:10;;;;;;;4.25;1.38;;;;;;;;;;3615682;39;20038;-60
2021/05/14 09:44:36;;;;;;;5.85;4.25;;;;;;;;;;3616097;39;20027;-61
2021/05/14 09:47:02;;;;;;;5.72;1.27;;;;;;;;;;3615989;39;20370;-61
2021/05/14 09:49:28;;;;;;;5.75;1.90;;;;;;;;;;3614644;39;20039;-60
2021/05/14 09:52:00;;;;;;;3.33;1.90;;;;;;;;;;3616298;39;20409;-61
2021/05/14 09:54:34;;;;;;;3.75;1.52;;;;;;;;;;3615861;39;20059;-60
2021/05/14 09:59:52;;;;;;;3.13;1.20;;;;;;;;;;3614995;39;20389;-61
2021/05/14 10:02:26;;;;;;;6.45;2.92;;;;;;;;;;3615851;39;20370;-61
2021/05/14 10:04:52;;;;;;;4.20;1.67;;;;;;;;;;3615942;39;20042;-59
2021/05/14 10:07:18;;;;;;;3.85;2.45;;;;;;;;;;3615622;39;20038;-60
2021/05/14 10:09:50;;;;;;;4.53;1.70;;;;;;;;;;3615425;39;20028;-60
2021/05/14 10:12:18;;;;;;;5.43;1.58;;;;;;;;;;3617408;39;20112;-61
2021/05/14 10:14:45;;;;;;;5.05;1.67;;;;;;;;;;3617349;39;20359;-61
2021/05/14 10:17:10;;;;;;;4.20;1.70;;;;;;;;;;3617931;39;20258;-61
2021/05/14 10:19:36;;;;;;;6.30;2.13;;;;;;;;;;3616618;39;20033;-61
2021/05/14 10:22:04;;;;;;;4.03;1.60;;;;;;;;;;3616923;39;20362;-61
2021/05/14 10:24:42;;;;;;;3.40;1.40;;;;;;;;;;3606898;39;20027;-61
2021/05/14 10:27:23;;;;;;;4.30;0.95;;;;;;;;;;3616833;39;20028;-61
2021/05/14 10:29:57;;;;;;;3.20;1.40;;;;;;;;;;3607343;39;20131;-61
2021/05/14 10:32:44;;;;;;;2.15;0.82;;;;;;;;;;3616853;39;20061;-61
2021/05/14 10:35:23;;;;;;;1.27;0.70;;;;;;;;;;3616690;39;20147;-61
2021/05/14 10:37:49;;;;;;;2.90;0.98;;;;;;;;;;3617860;39;20055;-61
2021/05/14 10:40:33;;;;;;;2.13;0.77;;;;;;;;;;3605009;39;20039;-61
2021/05/14 10:43:03;;;;;;;1.60;0.73;;;;;;;;;;3616743;39;20405;-62
2021/05/14 10:45:35;;;;;;;1.75;0.80;;;;;;;;;;3616791;39;20039;-62
2021/05/14 10:48:02;;;;;;;2.40;0.93;;;;;;;;;;3616528;39;20042;-62
2021/05/14 10:50:39;;;;;;;2.10;0.93;;;;;;;;;;3615904;39;20079;-62
2021/05/14 10:53:20;;;;;;;3.88;2.05;;;;;;;;;;3616295;39;20027;-62
2021/05/14 10:55:48;;;;;;;0.88;0.52;;;;;;;;;;3615688;39;20370;-62
2021/05/14 10:58:42;;;;;;;1.77;0.70;;;;;;;;;;3616312;39;20035;-62
2021/05/14 11:01:26;;;;;;;5.40;1.15;;;;;;;;;;3616306;39;20143;-62
2021/05/14 11:03:51;;;;;;;2.22;0.63;;;;;;;;;;3616794;39;20043;-62
2021/05/14 11:06:18;;;;;;;1.80;0.82;;;;;;;;;;3617231;39;20566;-62
2021/05/14 11:08:58;;;;;;;1.30;0.70;;;;;;;;;;3616835;39;20071;-62
2021/05/14 11:11:23;;;;;;;3.50;0.80;;;;;;;;;;3606919;39;20035;-62
2021/05/14 11:13:51;;;;;;;6.50;1.02;;;;;;;;;;3617417;39;20035;-61
2021/05/14 11:16:39;;;;;;;2.13;0.80;;;;;;;;;;3617283;39;20032;-62
2021/05/14 11:19:10;;;;;;;1.77;0.80;;;;;;;;;;3616417;39;20036;-61
2021/05/14 11:22:01;;;;;;;1.27;0.55;;;;;;;;;;3615382;39;20407;-61
2021/05/14 11:24:29;;;;;;;;;;;;;;;;;;3617315;39;20043;-61
2021/05/14 11:27:00;;;;;;;2.15;0.90;;;;;;;;;;3616286;39;19967;-61
2021/05/14 11:29:32;;;;;;;4.03;0.90;;;;;;;;;;3616716;39;20374;-63
2021/05/14 11:32:15;;;;;;;1.42;0.75;;;;;;;;;;3607395;39;20259;-63
2021/05/14 11:35:19;;;;;;;2.88;0.80;;;;;;;;;;3607089;39;20027;-63
2021/05/14 11:37:54;;;;;;;2.45;0.90;;;;;;;;;;3615554;39;20146;-63
2021/05/14 11:40:22;;;;;;;2.63;1.02;;;;;;;;;;3615733;39;20056;-63
2021/05/14 11:42:50;;;;;;;6.28;1.30;;;;;;;;;;3607527;39;20382;-62
2021/05/14 11:45:18;;;;;;;2.40;0.80;;;;;;;;;;3617340;39;20031;-62
2021/05/14 11:47:49;;;;;;;1.50;0.75;;;;;;;;;;3615931;39;20023;-61
2021/05/14 11:50:27;;;;;;;1.20;0.50;;;;;;;;;;3617195;39;20057;-62
2021/05/14 11:52:53;;;;;;;4.32;0.70;;;;;;;;;;3616917;39;20041;-61
2021/05/14 11:55:20;;;;;;;2.10;0.73;;;;;;;;;;3606637;39;20058;-60
2021/05/14 11:57:48;;;;;;;1.92;0.60;;;;;;;;;;3617065;39;20520;-62
2021/05/14 12:00:14;;;;;;;1.83;0.65;;;;;;;;;;3618302;39;20131;-62
2021/05/14 12:02:43;;;;;;;1.05;0.57;;;;;;;;;;3616859;39;20070;-63
2021/05/14 12:05:11;;;;;;;1.65;0.80;;;;;;;;;;3615132;39;20037;-62
2021/05/14 12:07:37;;;;;;;1.20;0.68;;;;;;;;;;3615860;39;20034;-62
2021/05/14 12:10:08;;;;;;;1.33;0.50;;;;;;;;;;3617093;39;20027;-62
2021/05/14 12:12:37;;;;;;;1.15;0.70;;;;;;;;;;3616079;39;20035;-61
2021/05/14 12:15:18;;;;;;;1.52;0.60;;;;;;;;;;3615979;39;20035;-61
2021/05/14 12:17:44;;;;;;;;;;;;;;;;;;3599142;39;20034;-61
2021/05/14 12:20:13;;;;;;;2.58;0.77;;;;;;;;;;3616748;39;19954;-61
2021/05/14 12:22:44;;;;;;;1.13;0.50;;;;;;;;;;3615441;39;20062;-61
2021/05/14 12:25:11;;;;;;;1.60;0.70;;;;;;;;;;3616426;39;20129;-61
2021/05/14 12:27:36;;;;;;;5.85;1.08;;;;;;;;;;3607161;39;20031;-61
2021/05/14 12:30:02;;;;;;;1.60;0.52;;;;;;;;;;3617001;39;20495;-61
2021/05/14 12:32:28;;;;;;;2.25;0.68;;;;;;;;;;3615910;39;20031;-61
2021/05/14 12:34:53;;;;;;;0.90;0.40;;;;;;;;;;3616961;39;20263;-61
2021/05/14 12:37:19;;;;;;;0.77;0.40;;;;;;;;;;3617112;39;20027;-60
2021/05/14 12:39:49;;;;;;;1.00;0.50;;;;;;;;;;3616371;39;20041;-61
2021/05/14 12:42:28;;;;;;;1.83;0.60;;;;;;;;;;3616895;39;20115;-60
2021/05/14 12:44:55;;;;;;;0.85;0.50;;;;;;;;;;3616869;39;20034;-60
2021/05/14 12:47:22;;;;;;;1.00;0.45;;;;;;;;;;3617123;39;20046;-60
2021/05/14 12:49:53;;;;;;;4.43;0.80;;;;;;;;;;3606194;39;20488;-59
2021/05/14 12:52:23;;;;;;;1.42;0.63;;;;;;;;;;3616079;39;20067;-60
2021/05/14 12:55:03;;;;;;;2.28;0.65;;;;;;;;;;3616942;39;20043;-61
2021/05/14 12:57:39;;;;;;;1.30;0.60;;;;;;;;;;3598505;39;20051;-61
2021/05/14 13:00:12;;;;;;;2.22;0.88;;;;;;;;;;3616796;39;20034;-61
2021/05/14 13:02:38;;;;;;;2.75;0.70;;;;;;;;;;3615793;39;20351;-61
2021/05/14 13:05:07;;;;;;;1.63;0.80;;;;;;;;;;3615310;39;20055;-61
2021/05/14 13:07:32;;;;;;;1.85;0.75;;;;;;;;;;3615647;39;20031;-61
2021/05/14 13:09:58;;;;;;;1.20;0.70;;;;;;;;;;3617093;39;20046;-61
2021/05/14 13:12:24;;;;;;;4.72;1.00;;;;;;;;;;3616683;39;20054;-61
2021/05/14 13:14:49;;;;;;;2.20;0.70;;;;;;;;;;3615882;39;20039;-60
2021/05/14 13:17:15;;;;;;;1.65;0.75;;;;;;;;;;3616799;39;20363;-60
2021/05/14 13:19:40;;;;;;;1.58;0.60;;;;;;;;;;3616241;39;20075;-60
2021/05/14 13:22:06;;;;;;;1.73;0.70;;;;;;;;;;3615798;39;20050;-60
2021/05/14 13:24:31;;;;;;;1.38;0.70;;;;;;;;;;3615444;39;20027;-60
2021/05/14 13:26:58;;;;;;;1.70;0.70;;;;;;;;;;3616464;39;20027;-60
2021/05/14 13:29:23;;;;;;;1.60;0.75;;;;;;;;;;3616502;39;20066;-60
2021/05/14 13:31:49;;;;;;;1.52;0.80;;;;;;;;;;3615311;39;20032;-60
2021/05/14 13:34:14;;;;;;;1.80;0.70;;;;;;;;;;3606565;39;20398;-60
2021/05/14 13:36:39;;;;;;;2.58;0.73;;;;;;;;;;3606732;39;20035;-60
2021/05/14 13:39:05;;;;;;;1.45;0.60;;;;;;;;;;3615511;39;20123;-60
2021/05/14 13:41:32;;;;;;;1.13;0.60;;;;;;;;;;3616473;39;20028;-60
2021/05/14 13:43:58;;;;;;;0.98;0.50;;;;;;;;;;3615893;39;20259;-60
2021/05/14 13:46:23;;;;;;;0.85;0.35;;;;;;;;;;3617165;39;20131;-60
2021/05/14 13:48:49;;;;;;;0.70;0.40;;;;;;;;;;3618178;39;20485;-60
2021/05/14 13:51:14;;;;;;;0.90;0.57;;;;;;;;;;3618020;39;20394;-60
2021/05/14 13:53:40;;;;;;;1.13;0.60;;;;;;;;;;3608062;39;20031;-60
2021/05/14 13:56:06;;;;;;;1.10;0.50;;;;;;;;;;3617281;39;20111;-60
2021/05/14 13:58:32;;;;;;;3.17;1.55;;;;;;;;;;3617469;39;20024;-60
2021/05/14 14:00:57;;;;;;;2.20;1.00;;;;;;;;;;3618323;39;20038;-60
2021/05/14 14:03:23;;;;;;;1.83;0.82;;;;;;;;;;3618093;39;20458;-61
2021/05/14 14:05:48;;;;;;;2.42;1.08;;;;;;;;;;3616598;39;20045;-60
2021/05/14 14:08:14;;;;;;;1.58;0.73;;;;;;;;;;3618077;39;20251;-60
2021/05/14 14:10:41;;;;;;;3.40;0.82;;;;;;;;;;3618113;39;20047;-60
2021/05/14 14:13:09;;;;;;;1.35;0.47;;;;;;;;;;3617253;39;20031;-60
2021/05/14 14:15:36;;;;;;;2.38;0.75;;;;;;;;;;3616741;39;20071;-60
2021/05/14 14:18:01;;;;;;;1.55;0.77;;;;;;;;;;3617946;39;20036;-60
2021/05/14 14:20:27;;;;;;;2.95;0.90;;;;;;;;;;3617598;39;20042;-60
2021/05/14 14:22:52;;;;;;;2.78;1.00;;;;;;;;;;3617085;39;20023;-60
2021/05/14 14:25:18;;;;;;;1.73;0.60;;;;;;;;;;3617858;39;20091;-60
2021/05/14 14:27:43;;;;;;;1.92;0.65;;;;;;;;;;3617660;39;20053;-60
2021/05/14 14:30:11;;;;;;;1.95;0.70;;;;;;;;;;3617140;39;20031;-60
2021/05/14 14:32:38;;;;;;;1.90;0.63;;;;;;;;;;3617325;39;20053;-60
2021/05/14 14:35:04;;;;;;;1.75;0.77;;;;;;;;;;3617497;39;20039;-60
2021/05/14 14:37:30;;;;;;;2.50;0.90;;;;;;;;;;3617679;39;20027;-60
2021/05/14 14:39:56;;;;;;;0.98;0.50;;;;;;;;;;3617282;39;20137;-60
2021/05/14 14:42:21;;;;;;;1.40;0.73;;;;;;;;;;3616341;39;20346;-60
2021/05/14 14:44:46;;;;;;;1.02;0.50;;;;;;;;;;3617485;39;21085;-60
2021/05/14 14:47:12;;;;;;;1.08;0.50;;;;;;;;;;3617892;39;20035;-61
2021/05/14 14:49:37;;;;;;;1.52;0.60;;;;;;;;;;3616878;39;20056;-60